Terminal Aerodrome Forecast
Issued by NWS Boston, MA

Home | Current Version | Previous Version | Text Only | Print | Product List | Glossary On
Versions: 1 2 3 4 5 6 7 8 9 10 11 12 13 14 15 16 17 18 19 20 21 22 23
000
FTUS41 KBOX 231120
TAFORH
TAF
KORH 231120Z 2312/2412 23009KT P6SM FEW050
     FM232000 22011KT P6SM VCTS BKN050CB
     FM240000 22009KT P6SM -SHRA OVC040
     FM240300 25007KT 3SM -SHRA OVC040
     FM240900 31005KT 3SM BR OVC050=

USA.gov is the U.S. government's official web portal to all federal, state and local government web resources and services.